首页
METAR-TAF:

METAR-TAF

机场 :

图勒, 格陵兰

图勒空军基地

纬度: 76-32N, 经度: 068-42W, 海拔: 77米

当前天气观测

该预报发布于5分钟前的04:56 UTC
静风
温度 -15°C
湿度 92%
气压 1013 hPa
能见度10公里或以上
阴天层高于1800英尺

METAR: BGTL 270456Z AUTO 00000KT 9999 OVC018 M15/M16 A2991 RMK AO2 SLP118 T11501161 TSNO $

时间: 02:01 (05:01 UTC)

预报

该预报发布于4小时和1分钟前的01:00 UTC
预报有效从27日的 01点(UTC)到 28日的 07点(UTC)
风速6节,风向
能見度: 8000
散云层高于500英尺
轻雾
成为
从 27日的 14点(UTC)到 27日的 15点(UTC)
风速6节,风向
能见度10公里或以上
少量云层高于1000英尺
多云层高于4000英尺
成为
从 27日的 18点(UTC)到 27日的 19点(UTC)
风速6节,风向
能見度: 2709
散云层高于2500英尺
多云层高于5000英尺
阴天层高于14000英尺

TAF: BGTL 270100Z 2701/2807 36006KT 8000 BR SCT005 QNH2986INS BECMG 2714/2715 36006KT 9999 NSW FEW010 BKN040 620401 QNH2979INS BECMG 2718/2719 36006KT 9999 SCT025 BKN050 OVC140 QNH2943INS TXM11/2718Z TNM17/2701Z LAST NO AMDS AFT 2701 NEXT 2709

超过4000个机场的气象观测和天气预报(METAR&TAF报告)。

可查询的气象台以黄色和红色小点在地图上表示。

将鼠标移到小点上方,可查看气象台名称。

然后点击查看天气观测和预报。

如需切换地图:点击带黑十字的绿色按钮放大地图;点击带横线的绿色按钮缩小地图;或者点击绿色箭头查看邻近地区的地图。


METAR-TAF: